Time;durP1;ratioP1;P1;durP2;ratioP2;P2;SDS_P1;SDS_P2;PMS_P1;PMS_P2;Temp;Humidity;BMP_temperature;BMP_pressure;BME280_temperature;BME280_humidity;BME280_pressure;Samples;Min_cycle;Max_cycle;Signal;HPM_P1;HPM_P2
2021/07/16 00:01:54;;;;;;;23.07;13.17;;;17.60;88.50;;;;;;5092526;28;20550;-90
2021/07/16 00:04:20;;;;;;;17.70;12.27;;;17.60;88.20;;;;;;5093168;28;20179;-90
2021/07/16 00:06:46;;;;;;;19.87;12.50;;;17.60;88.00;;;;;;5094655;28;20189;-90
2021/07/16 00:09:12;;;;;;;18.90;12.60;;;17.60;87.40;;;;;;5088084;28;20430;-90
2021/07/16 00:11:38;;;;;;;19.35;12.93;;;17.50;87.40;;;;;;5072516;28;20610;-90
2021/07/16 00:14:05;;;;;;;17.80;11.47;;;17.50;87.80;;;;;;5072993;28;20229;-90
2021/07/16 00:16:32;;;;;;;19.55;11.90;;;17.50;88.50;;;;;;5073148;28;20540;-90
2021/07/16 00:18:58;;;;;;;26.30;10.55;;;17.40;88.20;;;;;;5076748;28;20176;-90
2021/07/16 00:21:24;;;;;;;22.23;11.50;;;17.40;87.50;;;;;;5101255;28;20214;-90
2021/07/16 00:23:50;;;;;;;27.38;11.43;;;17.50;87.30;;;;;;5101115;28;20414;-90
2021/07/16 00:26:16;;;;;;;19.67;10.82;;;17.50;87.60;;;;;;5098800;28;20650;-90
2021/07/16 00:28:43;;;;;;;19.43;11.37;;;17.50;87.60;;;;;;5094561;28;20180;-91
2021/07/16 00:31:09;;;;;;;16.83;10.68;;;17.50;87.50;;;;;;5096209;28;20263;-90
2021/07/16 00:33:34;;;;;;;16.90;11.80;;;17.60;87.10;;;;;;5097447;28;20222;-90
2021/07/16 00:36:00;;;;;;;16.30;12.40;;;17.50;87.30;;;;;;5098589;28;20179;-90
2021/07/16 00:38:32;;;;;;;14.60;10.37;;;17.60;87.30;;;;;;5098177;28;20180;-90
2021/07/16 00:40:58;;;;;;;16.88;12.10;;;17.60;87.40;;;;;;5098836;28;20207;-90
2021/07/16 00:43:24;;;;;;;22.33;12.95;;;17.70;87.50;;;;;;5098949;28;20219;-90
2021/07/16 00:45:51;;;;;;;20.25;11.57;;;17.70;87.20;;;;;;5096695;28;20176;-90
2021/07/16 00:48:17;;;;;;;21.98;13.13;;;17.80;87.10;;;;;;5096624;28;20176;-90
2021/07/16 00:50:43;;;;;;;25.27;13.45;;;17.70;87.20;;;;;;5097209;28;20184;-90
2021/07/16 00:53:11;;;;;;;19.40;12.63;;;17.70;86.50;;;;;;5097886;28;20183;-90
2021/07/16 00:55:37;;;;;;;17.05;10.68;;;17.80;86.80;;;;;;5096064;28;20426;-90
2021/07/16 00:58:04;;;;;;;20.05;12.75;;;17.70;87.20;;;;;;5096483;28;20248;-90
2021/07/16 01:00:30;;;;;;;29.13;13.80;;;17.70;87.60;;;;;;5095874;28;20199;-90
2021/07/16 01:02:55;;;;;;;21.00;14.40;;;17.70;87.90;;;;;;5096399;28;20561;-90
2021/07/16 01:05:22;;;;;;;22.23;12.53;;;17.60;87.90;;;;;;5096410;28;20172;-90
2021/07/16 01:07:50;;;;;;;34.65;15.05;;;17.60;88.10;;;;;;5096544;28;20406;-91
2021/07/16 01:10:17;;;;;;;22.17;13.02;;;17.70;88.40;;;;;;5095987;28;20274;-90
2021/07/16 01:12:44;;;;;;;17.25;12.13;;;17.70;88.40;;;;;;5095963;28;20230;-90
2021/07/16 01:15:15;;;;;;;20.38;13.30;;;17.70;87.80;;;;;;5096272;28;20196;-90
2021/07/16 01:17:42;;;;;;;27.30;12.20;;;17.60;88.30;;;;;;5105349;28;20657;-90
2021/07/16 01:20:14;;;;;;;17.73;12.90;;;17.70;88.70;;;;;;5096169;28;20188;-90
2021/07/16 01:22:42;;;;;;;25.30;13.35;;;17.60;89.30;;;;;;5096687;28;20191;-90
2021/07/16 01:25:25;;;;;;;21.90;12.20;;;17.70;89.20;;;;;;5096064;28;20180;-90
2021/07/16 01:27:53;;;;;;;19.75;12.55;;;17.70;89.10;;;;;;5095898;28;20182;-90
2021/07/16 01:30:21;;;;;;;20.73;11.95;;;17.70;88.80;;;;;;5096976;28;20237;-90
2021/07/16 01:32:48;;;;;;;24.80;13.20;;;17.70;89.10;;;;;;5095735;28;20662;-90
2021/07/16 01:35:15;;;;;;;25.80;12.98;;;17.60;89.20;;;;;;5095859;28;20232;-90
2021/07/16 01:37:41;;;;;;;27.13;12.30;;;17.50;89.60;;;;;;5095649;28;20182;-90
2021/07/16 01:40:10;;;;;;;24.63;12.25;;;17.50;89.90;;;;;;5097083;28;20179;-90
2021/07/16 01:42:37;;;;;;;32.15;12.70;;;17.60;89.30;;;;;;5096498;28;20249;-90
2021/07/16 01:45:06;;;;;;;20.40;11.57;;;17.70;89.30;;;;;;5096916;28;20183;-90
2021/07/16 01:47:32;;;;;;;20.13;11.85;;;17.70;89.40;;;;;;5096467;28;20275;-89
2021/07/16 01:49:57;;;;;;;30.97;13.67;;;17.60;89.20;;;;;;5108918;28;20184;-90
2021/07/16 01:52:23;;;;;;;18.03;12.07;;;17.50;89.40;;;;;;5119835;28;20460;-89
2021/07/16 01:54:49;;;;;;;26.30;12.93;;;17.50;89.40;;;;;;5119876;28;20155;-89
2021/07/16 01:57:15;;;;;;;27.80;12.02;;;17.50;90.00;;;;;;5119987;28;20168;-90
2021/07/16 01:59:41;;;;;;;25.30;11.47;;;17.70;88.90;;;;;;5110617;28;20255;-90
2021/07/16 02:02:07;;;;;;;29.60;12.27;;;17.60;88.50;;;;;;5107628;28;20275;-90
2021/07/16 02:04:33;;;;;;;25.53;12.10;;;17.50;89.00;;;;;;5110118;28;20180;-90
2021/07/16 02:07:00;;;;;;;19.87;11.57;;;17.40;88.40;;;;;;5114091;28;20168;-90
2021/07/16 02:09:26;;;;;;;30.23;12.13;;;17.40;89.00;;;;;;5102780;28;20202;-90
2021/07/16 02:11:54;;;;;;;29.27;12.33;;;17.50;88.80;;;;;;5107327;28;20263;-90
2021/07/16 02:14:20;;;;;;;25.15;14.05;;;17.30;88.50;;;;;;5096263;28;20225;-89
2021/07/16 02:16:45;;;;;;;22.00;12.83;;;17.20;88.60;;;;;;5095579;28;20187;-90
2021/07/16 02:19:11;;;;;;;26.93;13.50;;;17.10;88.70;;;;;;5095604;28;20179;-90
2021/07/16 02:21:37;;;;;;;26.57;11.40;;;17.10;89.10;;;;;;5094695;28;20212;-90
2021/07/16 02:24:03;;;;;;;20.93;11.97;;;17.20;89.30;;;;;;5096068;28;20183;-90
2021/07/16 02:26:28;;;;;;;22.70;12.57;;;17.20;89.20;;;;;;5096807;28;20172;-90
2021/07/16 02:28:54;;;;;;;26.30;12.70;;;17.30;89.20;;;;;;5094843;28;20414;-90
2021/07/16 02:31:20;;;;;;;25.03;13.50;;;17.30;89.00;;;;;;5094417;28;20206;-90
2021/07/16 02:33:45;;;;;;;22.30;12.50;;;17.20;88.60;;;;;;5094550;28;20370;-90
2021/07/16 02:36:11;;;;;;;29.17;13.20;;;17.10;88.00;;;;;;5096110;28;20229;-90
2021/07/16 02:38:53;;;;;;;28.20;11.77;;;17.10;88.20;;;;;;5094525;28;20221;-90
2021/07/16 02:41:19;;;;;;;24.85;13.00;;;17.10;88.50;;;;;;5093999;28;20586;-90
2021/07/16 02:43:45;;;;;;;24.03;12.10;;;17.10;88.60;;;;;;5094695;28;20196;-90
2021/07/16 02:46:11;;;;;;;26.53;12.80;;;17.10;88.80;;;;;;5095515;28;20172;-89
2021/07/16 02:48:37;;;;;;;21.23;12.70;;;17.10;88.70;;;;;;5094428;28;20287;-90
2021/07/16 02:51:04;;;;;;;23.40;12.20;;;17.10;88.50;;;;;;5095187;28;20625;-89
2021/07/16 02:53:30;;;;;;;27.88;12.82;;;17.10;88.20;;;;;;5094224;28;20422;-90
2021/07/16 02:55:57;;;;;;;25.10;13.07;;;17.00;87.80;;;;;;5094755;28;20247;-90
2021/07/16 02:58:22;;;;;;;21.92;11.00;;;17.10;88.20;;;;;;5095408;28;20210;-89
2021/07/16 03:00:48;;;;;;;22.00;11.33;;;17.10;87.50;;;;;;5110352;28;20682;-90
2021/07/16 03:03:14;;;;;;;28.13;10.73;;;17.10;88.00;;;;;;5105155;28;20184;-90
2021/07/16 03:05:40;;;;;;;24.10;11.57;;;17.00;87.30;;;;;;5114444;28;20441;-89
2021/07/16 03:08:08;;;;;;;25.10;10.30;;;17.10;87.50;;;;;;5113839;28;20231;-90
2021/07/16 03:10:39;;;;;;;16.42;10.68;;;17.10;86.60;;;;;;5114386;28;20168;-90
2021/07/16 03:13:08;;;;;;;22.00;11.93;;;17.20;86.50;;;;;;5115216;28;20169;-91
2021/07/16 03:15:35;;;;;;;23.30;10.63;;;17.10;86.00;;;;;;5104024;28;20287;-89
2021/07/16 03:18:02;;;;;;;28.98;11.80;;;17.10;85.90;;;;;;5119758;28;20214;-87
2021/07/16 03:20:33;;;;;;;18.65;11.05;;;17.10;85.80;;;;;;5100113;28;20199;-89
2021/07/16 03:22:59;;;;;;;21.05;11.35;;;17.10;85.90;;;;;;5094347;28;20249;-90
2021/07/16 03:25:27;;;;;;;20.23;10.48;;;17.20;86.40;;;;;;5103981;28;20182;-89
2021/07/16 03:27:53;;;;;;;26.17;11.80;;;17.30;86.70;;;;;;5117964;28;20245;-90
2021/07/16 03:30:22;;;;;;;21.90;11.45;;;17.20;86.00;;;;;;5118567;28;20211;-90
2021/07/16 03:32:48;;;;;;;18.15;10.73;;;17.20;85.50;;;;;;5118879;28;20192;-90
2021/07/16 03:35:15;;;;;;;17.63;9.55;;;17.20;85.70;;;;;;5119476;28;20191;-89
2021/07/16 03:37:42;;;;;;;20.90;10.75;;;17.20;85.50;;;;;;5119963;28;20189;-91
2021/07/16 03:40:11;;;;;;;19.00;9.27;;;17.20;84.60;;;;;;5119223;28;20181;-87
2021/07/16 03:42:37;;;;;;;26.55;10.32;;;17.20;84.50;;;;;;5119524;28;20200;-88
2021/07/16 03:45:05;;;;;;;16.63;9.40;;;17.10;84.70;;;;;;5119661;28;20302;-90
2021/07/16 03:47:31;;;;;;;26.48;9.70;;;17.10;85.20;;;;;;5119133;28;20184;-92
2021/07/16 03:49:57;;;;;;;34.63;11.77;;;17.10;84.50;;;;;;5119255;28;20166;-88
2021/07/16 03:52:23;;;;;;;21.40;11.23;;;17.20;84.70;;;;;;5118760;28;20441;-89
2021/07/16 03:54:50;;;;;;;24.45;10.35;;;17.10;84.80;;;;;;5119083;28;20430;-90
2021/07/16 03:57:16;;;;;;;20.77;8.75;;;17.10;84.40;;;;;;5118971;28;20178;-88
2021/07/16 03:59:41;;;;;;;24.37;10.17;;;17.10;84.00;;;;;;5118772;28;20168;-89
2021/07/16 04:02:07;;;;;;;19.87;10.33;;;17.10;84.40;;;;;;5117964;28;20487;-91
2021/07/16 04:04:33;;;;;;;19.27;9.90;;;17.00;84.70;;;;;;5119543;28;20191;-88
2021/07/16 04:07:00;;;;;;;19.75;10.30;;;17.10;85.30;;;;;;5118942;28;20187;-87
2021/07/16 04:09:27;;;;;;;21.73;11.30;;;17.00;85.10;;;;;;5118582;28;20168;-88
2021/07/16 04:12:09;;;;;;;17.83;10.70;;;17.00;85.30;;;;;;5118301;28;20208;-89
2021/07/16 04:14:44;;;;;;;31.75;10.85;;;17.10;85.80;;;;;;5119091;28;20170;-90
2021/07/16 04:17:15;;;;;;;26.92;10.20;;;17.20;84.10;;;;;;5104426;28;20228;-89
2021/07/16 04:19:42;;;;;;;22.00;10.32;;;17.20;83.70;;;;;;5095255;28;20233;-89
2021/07/16 04:22:09;;;;;;;29.30;10.98;;;17.30;84.10;;;;;;5094532;28;20218;-89
2021/07/16 04:24:35;;;;;;;22.85;10.13;;;17.30;84.50;;;;;;5093368;28;20172;-89
2021/07/16 04:27:02;;;;;;;22.80;10.63;;;17.40;83.90;;;;;;5093356;28;20180;-90
2021/07/16 04:29:28;;;;;;;19.33;10.63;;;17.30;83.10;;;;;;5093271;28;20172;-90
2021/07/16 04:31:54;;;;;;;19.87;9.53;;;17.40;82.50;;;;;;5092797;28;20206;-89
2021/07/16 04:34:20;;;;;;;20.30;10.63;;;17.40;82.70;;;;;;5093412;28;20209;-89
2021/07/16 04:36:46;;;;;;;26.70;10.37;;;17.30;82.80;;;;;;5092780;28;20183;-90
2021/07/16 04:39:12;;;;;;;22.23;9.17;;;17.40;82.80;;;;;;5092669;28;20504;-90
2021/07/16 04:41:38;;;;;;;18.55;9.73;;;17.40;82.50;;;;;;5093261;28;20199;-90
2021/07/16 04:44:04;;;;;;;13.87;9.87;;;17.40;81.20;;;;;;5092605;28;20183;-89
2021/07/16 04:46:30;;;;;;;22.63;9.25;;;17.30;81.40;;;;;;5092745;28;20417;-90
2021/07/16 04:48:56;;;;;;;18.23;10.13;;;17.30;82.00;;;;;;5093922;28;20172;-90
2021/07/16 04:51:29;;;;;;;23.40;11.03;;;17.40;82.10;;;;;;5092300;28;20229;-90
2021/07/16 04:53:56;;;;;;;20.08;11.15;;;17.50;81.40;;;;;;5093912;28;20176;-90
2021/07/16 04:56:23;;;;;;;16.77;9.57;;;17.50;81.30;;;;;;5099276;28;20179;-89
2021/07/16 04:58:49;;;;;;;25.65;9.73;;;17.40;81.90;;;;;;5093661;28;20171;-89
2021/07/16 05:01:15;;;;;;;15.25;8.85;;;17.40;82.40;;;;;;5092085;28;20218;-90
2021/07/16 05:03:42;;;;;;;22.83;10.10;;;17.40;82.10;;;;;;5095017;28;20164;-90
2021/07/16 05:06:08;;;;;;;21.98;9.80;;;17.50;80.60;;;;;;5092948;28;20180;-90
2021/07/16 05:08:37;;;;;;;17.98;9.88;;;17.50;80.00;;;;;;5093758;28;20630;-89
2021/07/16 05:11:03;;;;;;;25.88;10.00;;;17.60;79.90;;;;;;5071634;28;20208;-90
2021/07/16 05:13:29;;;;;;;38.07;10.63;;;17.50;80.70;;;;;;5072831;28;20696;-90
2021/07/16 05:15:54;;;;;;;19.37;9.47;;;17.30;80.90;;;;;;5072584;28;20196;-90
2021/07/16 05:18:20;;;;;;;32.87;9.03;;;17.40;80.80;;;;;;5072469;28;20230;-89
2021/07/16 05:20:46;;;;;;;16.77;8.90;;;17.40;80.30;;;;;;5071671;28;20201;-89
2021/07/16 05:23:11;;;;;;;18.80;9.10;;;17.50;79.70;;;;;;5072424;28;20204;-89
2021/07/16 05:25:39;;;;;;;22.23;9.90;;;17.50;79.80;;;;;;5072390;28;20632;-89
2021/07/16 05:28:05;;;;;;;13.38;8.20;;;17.40;79.40;;;;;;5072635;28;20173;-89
2021/07/16 05:30:31;;;;;;;14.40;9.50;;;17.60;79.00;;;;;;5074002;28;20187;-89
2021/07/16 05:32:56;;;;;;;14.53;7.77;;;17.70;78.50;;;;;;5077504;28;20437;-89
2021/07/16 05:35:22;;;;;;;20.33;8.70;;;17.80;77.80;;;;;;5087106;28;20438;-89
2021/07/16 05:37:48;;;;;;;19.50;9.17;;;17.80;78.20;;;;;;5079794;28;20252;-89
2021/07/16 05:40:15;;;;;;;17.55;8.90;;;17.90;77.80;;;;;;5077675;28;20185;-90
2021/07/16 05:42:41;;;;;;;20.08;9.45;;;17.90;76.50;;;;;;5078034;28;20196;-89
2021/07/16 05:45:07;;;;;;;19.37;9.80;;;17.90;75.80;;;;;;5078509;28;20180;-89
2021/07/16 05:47:33;;;;;;;26.40;9.25;;;18.00;76.20;;;;;;5080059;28;20429;-89
2021/07/16 05:49:59;;;;;;;14.52;7.53;;;18.00;75.60;;;;;;5082711;28;20698;-89
2021/07/16 05:52:26;;;;;;;15.43;8.67;;;18.20;75.20;;;;;;5078158;28;20193;-89
2021/07/16 05:54:52;;;;;;;16.05;8.63;;;18.20;75.30;;;;;;5078477;28;20179;-89
2021/07/16 05:57:18;;;;;;;20.80;8.52;;;18.20;74.30;;;;;;5075813;28;20176;-89
2021/07/16 05:59:44;;;;;;;22.10;9.60;;;18.00;73.80;;;;;;5074857;28;20313;-89
2021/07/16 06:02:10;;;;;;;13.18;8.15;;;18.00;74.30;;;;;;5074577;28;20474;-89
2021/07/16 06:04:36;;;;;;;17.97;8.40;;;18.10;73.80;;;;;;5077144;28;20510;-88
2021/07/16 06:07:02;;;;;;;19.93;8.47;;;18.10;73.50;;;;;;5075907;28;20176;-89
2021/07/16 06:09:29;;;;;;;13.15;9.13;;;18.20;73.40;;;;;;5075292;28;20407;-89
2021/07/16 06:11:54;;;;;;;15.63;8.35;;;18.20;73.50;;;;;;5075457;28;20200;-89
2021/07/16 06:14:22;;;;;;;18.87;8.80;;;18.00;72.70;;;;;;5075419;28;20234;-89
2021/07/16 06:16:49;;;;;;;11.18;8.25;;;18.10;74.50;;;;;;5076277;28;20196;-89
2021/07/16 06:19:16;;;;;;;17.08;9.10;;;18.10;75.70;;;;;;5075928;28;20271;-89
2021/07/16 06:21:41;;;;;;;20.73;8.20;;;18.20;76.00;;;;;;5078132;28;20622;-89
2021/07/16 06:24:07;;;;;;;19.20;8.67;;;18.10;73.90;;;;;;5083180;28;20221;-89
2021/07/16 06:26:35;;;;;;;24.07;9.63;;;18.20;73.20;;;;;;5096943;28;20228;-90
2021/07/16 06:29:04;;;;;;;23.58;8.90;;;18.20;75.10;;;;;;5096203;28;20168;-89
2021/07/16 06:31:30;;;;;;;21.27;9.88;;;18.20;74.10;;;;;;5094885;28;20235;-90
2021/07/16 06:33:57;;;;;;;15.20;6.95;;;18.10;73.40;;;;;;5094723;28;20180;-89
2021/07/16 06:36:23;;;;;;;13.50;7.97;;;18.30;73.90;;;;;;5094513;28;20248;-90
2021/07/16 06:38:49;;;;;;;15.23;7.70;;;18.20;74.10;;;;;;5096576;28;20255;-89
2021/07/16 06:41:15;;;;;;;17.70;8.57;;;18.10;74.20;;;;;;5094800;28;20294;-89
2021/07/16 06:43:40;;;;;;;18.35;8.20;;;18.30;74.80;;;;;;5096833;28;20715;-90
2021/07/16 06:46:08;;;;;;;10.20;7.17;;;18.30;75.20;;;;;;5094854;28;20180;-90
2021/07/16 06:48:35;;;;;;;14.52;7.00;;;18.60;75.10;;;;;;5094396;28;20750;-90
2021/07/16 06:51:01;;;;;;;17.00;7.13;;;18.80;73.20;;;;;;5093876;28;20304;-89
2021/07/16 06:53:27;;;;;;;18.42;6.75;;;18.80;72.40;;;;;;5094797;28;20562;-88
2021/07/16 06:55:53;;;;;;;18.47;9.17;;;19.00;71.20;;;;;;5094456;28;20194;-89
2021/07/16 06:58:18;;;;;;;17.53;6.53;;;19.00;70.80;;;;;;5094298;28;20410;-88
2021/07/16 07:00:44;;;;;;;25.90;9.83;;;18.70;71.50;;;;;;5093696;28;20222;-88
2021/07/16 07:03:10;;;;;;;12.25;6.25;;;18.80;71.90;;;;;;5093969;28;20559;-88
2021/07/16 07:05:36;;;;;;;11.70;5.87;;;18.80;69.90;;;;;;5093699;28;20182;-89
2021/07/16 07:08:03;;;;;;;14.20;6.83;;;18.70;69.30;;;;;;5094577;28;20460;-88
2021/07/16 07:10:30;;;;;;;17.67;8.30;;;18.70;69.80;;;;;;5079265;28;20247;-88
2021/07/16 07:12:56;;;;;;;16.33;7.20;;;18.60;71.10;;;;;;5084637;28;20353;-88
2021/07/16 07:15:22;;;;;;;17.93;7.03;;;18.70;72.40;;;;;;5093829;28;20218;-88
2021/07/16 07:17:47;;;;;;;15.10;6.73;;;19.10;73.40;;;;;;5093999;28;20550;-89
2021/07/16 07:20:13;;;;;;;20.13;8.27;;;19.30;72.10;;;;;;5093653;28;20180;-89
2021/07/16 07:22:41;;;;;;;12.30;7.67;;;19.60;71.60;;;;;;5093362;28;20438;-89
2021/07/16 07:25:08;;;;;;;22.58;8.85;;;19.40;70.50;;;;;;5094951;28;20409;-89
2021/07/16 07:27:34;;;;;;;16.88;6.78;;;19.50;70.10;;;;;;5093731;28;20183;-89
2021/07/16 07:30:00;;;;;;;29.55;7.82;;;19.60;68.90;;;;;;5093917;28;20225;-88
2021/07/16 07:32:26;;;;;;;25.13;6.10;;;19.70;67.10;;;;;;5093086;28;20199;-89
2021/07/16 07:34:52;;;;;;;23.67;7.07;;;20.00;68.40;;;;;;5093684;28;20270;-88
2021/07/16 07:37:17;;;;;;;15.53;7.00;;;19.70;67.40;;;;;;5094138;28;20179;-90
2021/07/16 07:39:43;;;;;;;16.37;6.73;;;19.40;67.90;;;;;;5095417;28;20202;-89
2021/07/16 07:42:15;;;;;;;17.43;7.00;;;19.60;67.00;;;;;;5094113;28;20597;-89
2021/07/16 07:44:41;;;;;;;12.50;7.03;;;19.70;66.90;;;;;;5093399;28;20173;-90
2021/07/16 07:47:07;;;;;;;17.25;6.20;;;19.70;66.30;;;;;;5094250;28;20714;-90
2021/07/16 07:49:33;;;;;;;12.80;6.37;;;19.70;65.80;;;;;;5095252;28;20264;-90
2021/07/16 07:51:59;;;;;;;24.20;6.13;;;19.70;65.70;;;;;;5092901;28;20486;-90
2021/07/16 07:54:25;;;;;;;18.23;6.90;;;19.70;65.70;;;;;;5094140;28;20175;-91
2021/07/16 07:56:50;;;;;;;12.73;6.00;;;19.90;67.20;;;;;;5094643;28;20172;-90
2021/07/16 07:59:16;;;;;;;15.40;5.63;;;20.10;66.30;;;;;;5093598;28;20179;-90
2021/07/16 08:01:42;;;;;;;14.70;6.00;;;20.20;64.80;;;;;;5092795;28;20548;-90
2021/07/16 08:04:07;;;;;;;9.10;5.80;;;20.00;64.90;;;;;;5093800;28;20172;-90
2021/07/16 08:06:33;;;;;;;24.90;5.53;;;19.90;64.50;;;;;;5093948;28;20541;-90
2021/07/16 08:08:59;;;;;;;10.33;5.57;;;20.10;65.00;;;;;;5093701;28;20182;-90
2021/07/16 08:11:28;;;;;;;15.85;5.90;;;19.90;64.00;;;;;;5094199;28;20196;-90
2021/07/16 08:13:54;;;;;;;14.02;5.68;;;19.60;64.50;;;;;;5096038;28;20233;-90
2021/07/16 08:16:19;;;;;;;21.57;6.30;;;19.50;65.60;;;;;;5096173;28;20184;-90
2021/07/16 08:18:45;;;;;;;31.27;8.00;;;19.40;66.50;;;;;;5094525;28;20582;-89
2021/07/16 08:21:11;;;;;;;9.53;5.30;;;19.40;66.90;;;;;;5093925;28;20210;-90
2021/07/16 08:23:37;;;;;;;17.20;4.80;;;19.50;66.10;;;;;;5094281;28;20660;-90
2021/07/16 08:26:02;;;;;;;15.20;5.80;;;19.60;65.60;;;;;;5094318;28;20176;-90
2021/07/16 08:28:29;;;;;;;12.63;4.10;;;19.80;65.60;;;;;;5094700;28;20172;-90
2021/07/16 08:30:55;;;;;;;19.27;5.38;;;20.10;65.60;;;;;;5095403;28;20642;-91
2021/07/16 08:33:21;;;;;;;11.50;5.97;;;20.00;63.70;;;;;;5102584;28;20233;-90
2021/07/16 08:35:47;;;;;;;19.40;5.00;;;20.10;65.60;;;;;;5094683;28;20180;-90
2021/07/16 08:38:12;;;;;;;18.50;5.30;;;19.90;66.70;;;;;;5092910;28;20643;-90
2021/07/16 08:40:38;;;;;;;15.70;5.67;;;19.90;66.70;;;;;;5092685;28;20206;-90
2021/07/16 08:43:06;;;;;;;20.57;5.60;;;19.90;66.90;;;;;;5092931;28;20192;-90
2021/07/16 08:45:31;;;;;;;18.63;5.45;;;19.80;67.80;;;;;;5093768;28;20233;-90
2021/07/16 08:47:57;;;;;;;13.70;5.50;;;19.80;65.30;;;;;;5093234;28;20176;-90
2021/07/16 08:50:25;;;;;;;14.60;6.37;;;19.60;64.70;;;;;;5092827;28;20176;-90
2021/07/16 08:52:51;;;;;;;19.65;5.45;;;19.70;66.30;;;;;;5092800;28;20432;-87
2021/07/16 08:55:19;;;;;;;14.07;4.88;;;19.70;66.70;;;;;;5092839;28;20180;-90
2021/07/16 08:57:45;;;;;;;12.23;4.60;;;19.70;66.30;;;;;;5092968;28;20171;-89
2021/07/16 09:00:13;;;;;;;17.27;5.73;;;19.70;65.80;;;;;;5092770;28;20176;-89
2021/07/16 09:02:50;;;;;;;19.25;6.03;;;19.90;65.40;;;;;;5093206;28;20203;-89
2021/07/16 09:05:16;;;;;;;12.13;4.65;;;20.10;63.50;;;;;;5093545;28;20179;-89
2021/07/16 09:07:49;;;;;;;12.87;4.77;;;20.30;63.40;;;;;;5097009;28;20175;-89
2021/07/16 09:10:20;;;;;;;14.73;4.55;;;20.60;63.00;;;;;;5097159;28;20183;-88
2021/07/16 09:12:57;;;;;;;12.23;3.70;;;20.70;63.80;;;;;;5096896;28;20196;-89
2021/07/16 09:15:22;;;;;;;8.75;4.32;;;20.60;63.10;;;;;;5096675;28;20191;-89
2021/07/16 09:17:52;;;;;;;18.30;4.10;;;20.60;62.40;;;;;;5096690;28;20658;-89
2021/07/16 09:20:26;;;;;;;23.50;5.35;;;20.50;62.00;;;;;;5097129;28;20542;-89
2021/07/16 09:23:18;;;;;;;11.40;4.50;;;20.40;62.70;;;;;;5097906;28;20200;-89
2021/07/16 09:26:00;;;;;;;17.17;5.38;;;20.40;62.90;;;;;;5099020;28;20168;-89
2021/07/16 09:28:26;;;;;;;11.82;4.90;;;20.40;64.00;;;;;;5100997;28;20186;-89
2021/07/16 09:31:07;;;;;;;14.48;5.00;;;20.00;64.60;;;;;;5097766;28;20597;-89
2021/07/16 09:33:42;;;;;;;16.55;5.43;;;20.10;65.60;;;;;;5099654;28;20207;-89
2021/07/16 09:36:08;;;;;;;9.70;5.13;;;20.30;65.60;;;;;;5098635;28;20202;-88
2021/07/16 09:38:34;;;;;;;14.27;5.40;;;20.30;66.00;;;;;;5098513;28;20191;-89
2021/07/16 09:41:05;;;;;;;16.77;4.53;;;20.00;66.40;;;;;;5097828;28;20219;-89
2021/07/16 09:43:32;;;;;;;16.92;5.10;;;19.90;66.20;;;;;;5098326;28;20259;-88
2021/07/16 09:46:00;;;;;;;18.92;5.05;;;19.70;66.20;;;;;;5098055;28;20168;-89
2021/07/16 09:48:33;;;;;;;22.45;4.50;;;19.70;67.60;;;;;;5097532;28;20215;-89
2021/07/16 09:51:13;;;;;;;14.35;5.25;;;19.50;66.80;;;;;;5096642;28;20186;-89
2021/07/16 09:54:03;;;;;;;19.10;5.10;;;19.50;68.10;;;;;;5098656;28;20180;-89
2021/07/16 09:56:35;;;;;;;19.35;5.50;;;19.40;68.20;;;;;;5093885;28;20195;-89
2021/07/16 09:59:17;;;;;;;14.20;4.93;;;19.60;68.00;;;;;;5099075;28;20263;-89
2021/07/16 10:01:48;;;;;;;20.75;6.45;;;19.70;67.80;;;;;;5097244;28;20717;-89
2021/07/16 10:04:35;;;;;;;7.97;4.95;;;19.90;66.70;;;;;;5099351;28;20183;-89
2021/07/16 10:07:01;;;;;;;15.13;4.63;;;20.10;66.80;;;;;;5096371;28;20244;-90
2021/07/16 10:09:26;;;;;;;22.93;6.80;;;20.10;65.40;;;;;;5088884;28;20204;-89
2021/07/16 10:11:57;;;;;;;8.23;4.60;;;19.90;64.90;;;;;;5075563;28;20196;-89
2021/07/16 10:14:23;;;;;;;21.17;6.00;;;19.70;65.10;;;;;;5075563;28;20230;-89
2021/07/16 10:16:51;;;;;;;18.70;5.18;;;19.70;65.80;;;;;;5074644;28;20263;-89
2021/07/16 10:19:17;;;;;;;16.95;6.63;;;19.70;67.10;;;;;;5076326;28;20177;-89
2021/07/16 10:21:47;;;;;;;13.18;5.35;;;19.50;67.90;;;;;;5077326;28;20213;-89
2021/07/16 10:24:17;;;;;;;14.75;5.90;;;19.40;68.40;;;;;;5076033;28;20276;-89
2021/07/16 10:27:08;;;;;;;18.17;5.45;;;19.40;69.30;;;;;;5074863;28;20635;-90
2021/07/16 10:29:43;;;;;;;24.48;5.90;;;19.50;69.40;;;;;;5075194;28;20192;-89
2021/07/16 10:32:09;;;;;;;16.63;5.45;;;19.50;68.40;;;;;;5074699;28;20693;-89
2021/07/16 10:34:41;;;;;;;14.40;5.97;;;19.50;68.90;;;;;;5075032;28;20191;-89
2021/07/16 10:37:10;;;;;;;25.27;6.20;;;19.60;67.30;;;;;;5074869;28;20180;-89
2021/07/16 10:39:51;;;;;;;14.60;5.07;;;19.90;65.70;;;;;;5074562;28;20183;-88
2021/07/16 10:42:26;;;;;;;17.50;4.95;;;20.40;65.30;;;;;;5073608;28;20212;-89
2021/07/16 10:45:00;;;;;;;18.40;5.05;;;20.70;65.10;;;;;;5074623;28;20182;-89
2021/07/16 10:47:40;;;;;;;19.00;6.05;;;20.80;63.50;;;;;;5074814;28;20176;-89
2021/07/16 10:50:27;;;;;;;19.60;6.40;;;20.90;64.30;;;;;;5081873;28;20168;-89
2021/07/16 10:52:54;;;;;;;14.85;6.03;;;20.90;63.80;;;;;;5096820;28;20727;-89
2021/07/16 10:55:29;;;;;;;23.20;5.85;;;20.80;62.90;;;;;;5095630;28;20195;-89
2021/07/16 10:57:55;;;;;;;16.48;5.57;;;20.60;63.90;;;;;;5094736;28;20185;-89
2021/07/16 11:00:36;;;;;;;12.90;5.67;;;20.30;64.70;;;;;;5094759;28;20703;-89
2021/07/16 11:03:11;;;;;;;13.73;5.30;;;20.40;65.10;;;;;;5096270;28;20486;-89
2021/07/16 11:05:38;;;;;;;23.10;6.50;;;20.50;65.20;;;;;;5095731;28;20179;-89
2021/07/16 11:08:23;;;;;;;16.10;6.28;;;20.70;64.20;;;;;;5095632;28;20213;-90
2021/07/16 11:10:50;;;;;;;19.63;5.97;;;21.00;64.20;;;;;;5095610;28;20180;-88
2021/07/16 11:13:55;;;;;;;27.70;6.43;;;21.20;63.20;;;;;;5095868;28;20197;-89
2021/07/16 11:16:25;;;;;;;22.10;5.13;;;21.40;61.70;;;;;;5086380;28;20868;-88
2021/07/16 11:19:09;;;;;;;12.43;5.80;;;21.50;60.70;;;;;;5097317;28;20409;-89
2021/07/16 11:21:46;;;;;;;12.33;5.10;;;21.60;60.30;;;;;;5094477;28;20514;-89
2021/07/16 11:24:17;;;;;;;13.13;6.53;;;21.10;60.80;;;;;;5097065;28;20442;-89
2021/07/16 11:26:51;;;;;;;15.55;6.47;;;20.90;62.50;;;;;;5096067;28;20683;-89
2021/07/16 11:29:19;;;;;;;17.45;6.53;;;20.60;63.40;;;;;;5095608;28;20669;-89
2021/07/16 11:31:46;;;;;;;17.85;6.30;;;20.50;63.30;;;;;;5095285;28;20245;-88
2021/07/16 11:34:16;;;;;;;19.10;6.13;;;20.50;64.60;;;;;;5093670;28;20184;-89
2021/07/16 11:36:52;;;;;;;19.17;6.75;;;20.50;65.60;;;;;;5094770;28;20207;-89
2021/07/16 11:39:27;;;;;;;15.80;5.47;;;20.80;66.10;;;;;;5093463;28;20259;-89
2021/07/16 11:41:53;;;;;;;23.25;7.18;;;20.80;65.40;;;;;;5093111;28;20622;-89
2021/07/16 11:44:29;;;;;;;17.33;5.90;;;21.30;65.00;;;;;;5093761;28;20175;-89
2021/07/16 11:46:56;;;;;;;19.60;7.20;;;21.30;63.30;;;;;;5094842;28;20638;-88
2021/07/16 11:49:27;;;;;;;15.50;5.40;;;21.30;63.00;;;;;;5093670;28;20445;-89
2021/07/16 11:52:01;;;;;;;18.30;6.17;;;21.60;62.20;;;;;;5092874;28;20438;-89
2021/07/16 11:54:29;;;;;;;25.10;7.43;;;21.50;62.50;;;;;;5093541;28;20520;-90
2021/07/16 11:56:56;;;;;;;22.50;6.40;;;21.60;63.00;;;;;;5095420;28;20864;-89
2021/07/16 11:59:23;;;;;;;14.57;6.03;;;21.70;61.80;;;;;;5093365;28;20501;-89
2021/07/16 12:02:09;;;;;;;15.50;6.00;;;21.70;59.60;;;;;;5093295;28;20461;-89
2021/07/16 12:04:37;;;;;;;10.63;5.23;;;21.70;60.10;;;;;;5095385;28;20789;-89
2021/07/16 12:07:03;;;;;;;15.30;7.07;;;21.40;60.70;;;;;;5096963;28;20402;-89
2021/07/16 12:09:38;;;;;;;15.93;7.10;;;21.60;60.40;;;;;;5079054;28;20422;-89
2021/07/16 12:12:09;;;;;;;24.37;5.97;;;21.50;61.90;;;;;;5096246;28;20428;-89
2021/07/16 12:14:51;;;;;;;11.50;5.23;;;21.40;60.60;;;;;;5092964;28;20587;-89
2021/07/16 12:17:24;;;;;;;18.80;6.37;;;21.80;61.20;;;;;;5093640;28;20429;-89
2021/07/16 12:19:50;;;;;;;23.13;6.20;;;22.00;61.10;;;;;;5093263;28;20437;-89
2021/07/16 12:22:20;;;;;;;19.70;6.53;;;22.00;58.50;;;;;;5092869;28;20814;-89
2021/07/16 12:24:46;;;;;;;13.90;5.40;;;22.20;58.80;;;;;;5094280;28;20401;-89
2021/07/16 12:27:13;;;;;;;18.10;7.70;;;22.30;57.60;;;;;;5092823;28;20410;-89
2021/07/16 12:29:40;;;;;;;12.13;5.90;;;22.30;58.70;;;;;;5093133;28;20417;-89
2021/07/16 12:32:06;;;;;;;21.07;6.53;;;22.00;58.90;;;;;;5093552;28;20437;-89
2021/07/16 12:34:32;;;;;;;13.43;7.80;;;22.00;58.90;;;;;;5093740;28;20928;-89
2021/07/16 12:37:19;;;;;;;17.80;6.30;;;21.90;60.40;;;;;;5093241;28;20410;-89
2021/07/16 12:39:46;;;;;;;22.63;7.50;;;21.90;59.50;;;;;;5095894;28;20771;-90